createdAt,value
2019-02-21T00:00:58.473Z,80.38
2019-02-21T00:01:58.484Z,80.47
2019-02-21T00:03:51.392Z,80.38
2019-02-21T00:04:51.395Z,80.29
2019-02-21T00:06:44.789Z,80.19
2019-02-21T00:07:44.802Z,80.10
2019-02-21T00:09:38.202Z,80.57
2019-02-21T00:10:38.206Z,80.57
2019-02-21T00:12:31.113Z,80.57
2019-02-21T00:13:31.117Z,80.47
2019-02-21T00:15:24.511Z,80.47
2019-02-21T00:16:24.524Z,80.57
2019-02-21T00:18:17.428Z,80.19
2019-02-21T00:19:17.432Z,80.29
2019-02-21T00:21:10.330Z,80.29
2019-02-21T00:22:10.341Z,80.29
2019-02-21T00:24:03.251Z,80.57
2019-02-21T00:25:03.255Z,80.00
2019-02-21T00:26:56.154Z,80.47
2019-02-21T00:27:56.172Z,79.72
2019-02-21T00:29:49.080Z,79.91
2019-02-21T00:30:49.077Z,79.81
2019-02-21T00:32:41.987Z,79.81
2019-02-21T00:33:41.989Z,80.10
2019-02-21T00:35:34.976Z,79.81
2019-02-21T00:36:34.900Z,80.00
2019-02-21T00:38:28.301Z,80.66
2019-02-21T00:39:28.306Z,80.29
2019-02-21T00:41:21.698Z,80.29
2019-02-21T00:42:21.712Z,80.19
2019-02-21T00:44:14.618Z,80.10
2019-02-21T00:45:14.622Z,80.00
2019-02-21T00:47:07.521Z,80.57
2019-02-21T00:48:07.532Z,80.57
2019-02-21T00:50:00.439Z,80.10
2019-02-21T00:51:00.449Z,80.29
2019-02-21T00:52:53.350Z,80.10
2019-02-21T00:53:53.354Z,80.10
2019-02-21T00:55:46.258Z,80.19
2019-02-21T00:56:46.264Z,80.00
2019-02-21T00:58:39.170Z,80.10
2019-02-21T00:59:39.172Z,80.29
2019-02-21T01:01:32.070Z,80.19
2019-02-21T01:02:32.088Z,80.29
2019-02-21T01:04:25.082Z,80.29
2019-02-21T01:05:24.996Z,80.66
2019-02-21T01:07:17.889Z,80.38
2019-02-21T01:08:17.902Z,80.57
2019-02-21T01:10:10.807Z,80.19
2019-02-21T01:11:10.811Z,80.19
2019-02-21T01:13:03.717Z,80.95
2019-02-21T01:14:03.722Z,80.66
2019-02-21T01:15:56.621Z,81.14
2019-02-21T01:16:56.647Z,81.14
2019-02-21T01:18:49.548Z,81.90
2019-02-21T01:19:49.555Z,81.24
2019-02-21T01:21:42.446Z,81.52
2019-02-21T01:22:42.464Z,81.71
2019-02-21T01:24:35.365Z,81.71
2019-02-21T01:25:35.370Z,81.52
2019-02-21T01:27:28.272Z,81.71
2019-02-21T01:28:28.282Z,81.81
2019-02-21T01:30:21.682Z,82.00
2019-02-21T01:31:21.688Z,82.28
2019-02-21T01:33:14.598Z,82.19
2019-02-21T01:34:14.598Z,82.48
2019-02-21T01:36:07.994Z,82.48
2019-02-21T01:37:08.002Z,82.19
2019-02-21T01:39:01.428Z,82.09
2019-02-21T01:40:01.409Z,82.19
2019-02-21T01:41:54.307Z,82.28
2019-02-21T01:42:54.322Z,81.90
2019-02-21T01:44:47.230Z,82.38
2019-02-21T01:45:47.229Z,82.09
2019-02-21T01:47:40.129Z,82.00
2019-02-21T01:48:40.142Z,82.00
2019-02-21T01:50:33.541Z,82.09
2019-02-21T01:51:33.546Z,82.09
2019-02-21T01:53:26.455Z,82.28
2019-02-21T01:54:26.458Z,81.90
2019-02-21T01:56:19.354Z,82.19
2019-02-21T01:57:19.366Z,82.00
2019-02-21T01:59:12.775Z,82.28
2019-02-21T02:00:12.780Z,82.19
2019-02-21T02:02:06.178Z,82.19
2019-02-21T02:03:06.184Z,82.09
2019-02-21T02:04:59.091Z,82.48
2019-02-21T02:05:59.091Z,82.00
2019-02-21T02:07:51.993Z,82.28
2019-02-21T02:08:52.007Z,82.09
2019-02-21T02:10:44.910Z,82.28
2019-02-21T02:11:44.914Z,82.38
2019-02-21T02:13:37.820Z,82.76
2019-02-21T02:14:37.827Z,82.67
2019-02-21T02:16:30.726Z,82.95
2019-02-21T02:17:30.737Z,83.00
2019-02-21T02:19:23.643Z,83.23
2019-02-21T02:20:23.647Z,83.04
2019-02-21T02:22:17.041Z,83.19
2019-02-21T02:23:17.054Z,83.00
2019-02-21T02:25:10.453Z,83.48
2019-02-21T02:26:10.460Z,83.48
2019-02-21T02:28:03.360Z,83.29
2019-02-21T02:29:03.370Z,83.39
2019-02-21T02:30:56.774Z,83.39
2019-02-21T02:31:56.783Z,83.67
2019-02-21T02:33:49.683Z,83.86
2019-02-21T02:34:49.687Z,83.58
2019-02-21T02:36:42.583Z,83.81
2019-02-21T02:37:42.597Z,83.58
2019-02-21T02:39:35.502Z,83.67
2019-02-21T02:40:35.505Z,83.76
2019-02-21T02:42:28.897Z,83.39
2019-02-21T02:43:28.912Z,83.95
2019-02-21T02:45:21.813Z,84.14
2019-02-21T02:46:21.817Z,84.43
2019-02-21T02:48:14.715Z,84.62
2019-02-21T02:49:14.731Z,84.43
2019-02-21T02:51:07.635Z,84.24
2019-02-21T02:52:07.636Z,84.33
2019-02-21T02:54:01.034Z,84.91
2019-02-21T02:55:01.040Z,84.72
2019-02-21T02:56:54.432Z,84.43
2019-02-21T02:57:54.444Z,85.00
2019-02-21T02:59:47.845Z,84.81
2019-02-21T03:00:47.848Z,84.62
2019-02-21T03:02:40.766Z,84.62
2019-02-21T03:03:40.778Z,84.52
2019-02-21T03:05:34.176Z,84.81
2019-02-21T03:06:34.196Z,84.43
2019-02-21T03:08:27.574Z,84.81
2019-02-21T03:09:27.586Z,85.00
2019-02-21T03:11:20.491Z,85.10
2019-02-21T03:12:20.500Z,85.38
2019-02-21T03:14:14.542Z,85.28
2019-02-21T03:15:14.545Z,85.86
2019-02-21T03:17:07.445Z,85.19
2019-02-21T03:18:07.456Z,85.38
2019-02-21T03:20:00.364Z,85.47
2019-02-21T03:21:00.371Z,85.38
2019-02-21T03:22:53.270Z,85.19
2019-02-21T03:23:53.278Z,85.28
2019-02-21T03:25:46.187Z,85.38
2019-02-21T03:26:46.189Z,85.19
2019-02-21T03:28:39.088Z,85.19
2019-02-21T03:29:39.099Z,85.38
2019-02-21T03:31:32.014Z,85.38
2019-02-21T03:32:32.011Z,85.19
2019-02-21T03:34:25.509Z,85.57
2019-02-21T03:35:25.415Z,85.19
2019-02-21T03:37:18.326Z,85.47
2019-02-21T03:38:18.329Z,85.86
2019-02-21T03:40:11.242Z,85.38
2019-02-21T03:41:11.236Z,85.38
2019-02-21T03:43:04.137Z,85.38
2019-02-21T03:44:04.148Z,85.19
2019-02-21T03:45:57.052Z,85.38
2019-02-21T03:46:57.068Z,85.28
2019-02-21T03:48:49.958Z,85.47
2019-02-21T03:49:49.969Z,85.38
2019-02-21T03:51:42.877Z,85.19
2019-02-21T03:52:42.876Z,85.19
2019-02-21T03:54:35.787Z,85.47
2019-02-21T03:55:35.789Z,85.95
2019-02-21T03:57:28.689Z,86.14
2019-02-21T03:58:28.702Z,86.14
2019-02-21T04:00:22.203Z,86.05
2019-02-21T04:01:22.105Z,86.05
2019-02-21T04:03:14.999Z,86.24
2019-02-21T04:04:15.022Z,86.24
2019-02-21T04:06:08.412Z,86.24
2019-02-21T04:07:08.414Z,86.14
2019-02-21T04:09:01.315Z,86.19
2019-02-21T04:10:01.318Z,86.43
2019-02-21T04:11:54.235Z,86.19
2019-02-21T04:12:54.321Z,86.57
2019-02-21T04:14:47.143Z,86.47
2019-02-21T04:15:47.147Z,87.24
2019-02-21T04:17:40.042Z,87.05
2019-02-21T04:18:40.054Z,87.14
2019-02-21T04:20:33.473Z,87.24
2019-02-21T04:21:33.459Z,87.90
2019-02-21T04:23:26.852Z,88.00
2019-02-21T04:24:26.862Z,87.43
2019-02-21T04:26:20.264Z,87.81
2019-02-21T04:27:20.265Z,88.19
2019-02-21T04:29:13.164Z,88.38
2019-02-21T04:30:13.174Z,88.38
2019-02-21T04:32:16.581Z,88.38
2019-02-21T04:33:06.081Z,88.19
2019-02-21T04:34:58.985Z,88.57
2019-02-21T04:35:58.989Z,88.95
2019-02-21T04:37:52.386Z,88.85
2019-02-21T04:38:52.386Z,88.76
2019-02-21T04:40:45.299Z,89.23
2019-02-21T04:41:45.303Z,89.23
2019-02-21T04:43:38.199Z,89.42
2019-02-21T04:44:38.208Z,89.28
2019-02-21T04:46:31.113Z,90.14
2019-02-21T04:47:31.119Z,90.23
2019-02-21T04:49:24.038Z,90.14
2019-02-21T04:50:24.056Z,90.61
2019-02-21T04:52:16.958Z,90.61
2019-02-21T04:53:16.959Z,90.52
2019-02-21T04:55:10.357Z,90.42
2019-02-21T04:56:10.358Z,90.23
2019-02-21T04:58:03.257Z,90.52
2019-02-21T04:59:03.267Z,90.14
2019-02-21T05:00:56.183Z,90.80
2019-02-21T05:01:56.271Z,90.99
2019-02-21T05:03:49.574Z,90.99
2019-02-21T05:04:49.581Z,91.38
2019-02-21T05:06:42.981Z,90.80
2019-02-21T05:07:42.987Z,91.28
2019-02-21T05:09:35.881Z,91.47
2019-02-21T05:10:35.891Z,91.56
2019-02-21T05:12:28.797Z,91.38
2019-02-21T05:13:28.802Z,91.66
2019-02-21T05:15:21.704Z,91.38
2019-02-21T05:16:21.704Z,91.38
2019-02-21T05:18:15.109Z,91.38
2019-02-21T05:19:15.115Z,91.38
2019-02-21T05:21:08.019Z,91.47
2019-02-21T05:22:08.028Z,91.56
2019-02-21T05:24:00.931Z,91.47
2019-02-21T05:25:00.952Z,91.94
2019-02-21T05:26:53.833Z,91.09
2019-02-21T05:27:53.836Z,91.66
2019-02-21T05:29:46.745Z,91.56
2019-02-21T05:30:46.741Z,91.66
2019-02-21T05:32:41.176Z,91.56
2019-02-21T05:33:39.650Z,91.56
2019-02-21T05:35:32.549Z,91.66
2019-02-21T05:36:32.558Z,91.66
2019-02-21T05:38:25.457Z,91.47
2019-02-21T05:39:25.468Z,91.47
2019-02-21T05:41:18.865Z,91.94
2019-02-21T05:42:18.869Z,91.85
2019-02-21T05:44:11.761Z,91.85
2019-02-21T05:45:11.782Z,92.04
2019-02-21T05:47:04.680Z,91.56
2019-02-21T05:48:04.682Z,91.66
2019-02-21T05:49:57.582Z,92.04
2019-02-21T05:50:57.590Z,92.23
2019-02-21T05:52:50.494Z,92.13
2019-02-21T05:53:50.496Z,91.94
2019-02-21T05:55:43.400Z,92.13
2019-02-21T05:56:43.407Z,92.23
2019-02-21T05:58:36.307Z,92.13
2019-02-21T05:59:36.310Z,91.94
2019-02-21T06:01:29.718Z,91.47
2019-02-21T06:02:29.729Z,92.04
2019-02-21T06:04:23.114Z,92.13
2019-02-21T06:05:23.125Z,91.75
2019-02-21T06:07:16.032Z,92.13
2019-02-21T06:08:16.036Z,92.13
2019-02-21T06:10:09.459Z,92.04
2019-02-21T06:11:09.466Z,91.94
2019-02-21T06:13:02.865Z,91.56
2019-02-21T06:14:02.872Z,91.56
2019-02-21T06:15:55.772Z,91.85
2019-02-21T06:16:55.775Z,91.85
2019-02-21T06:18:48.674Z,91.56
2019-02-21T06:19:48.684Z,91.56
2019-02-21T06:21:42.282Z,91.56
2019-02-21T06:22:42.295Z,91.47
2019-02-21T06:24:35.713Z,91.66
2019-02-21T06:25:35.720Z,91.66
2019-02-21T06:27:29.137Z,91.28
2019-02-21T06:28:29.154Z,91.47
2019-02-21T06:30:22.537Z,91.85
2019-02-21T06:31:22.554Z,91.85
2019-02-21T06:33:15.962Z,91.94
2019-02-21T06:34:15.964Z,92.13
2019-02-21T06:36:08.876Z,92.13
2019-02-21T06:37:08.879Z,92.04
2019-02-21T06:39:02.271Z,92.23
2019-02-21T06:40:02.280Z,92.42
2019-02-21T06:41:59.737Z,92.32
2019-02-21T06:42:55.695Z,92.13
2019-02-21T06:44:48.585Z,92.71
2019-02-21T06:45:48.596Z,92.13
2019-02-21T06:47:41.513Z,92.32
2019-02-21T06:48:41.502Z,92.42
2019-02-21T06:50:34.909Z,92.32
2019-02-21T06:51:34.926Z,93.08
2019-02-21T06:53:28.323Z,93.08
2019-02-21T06:54:28.327Z,92.80
2019-02-21T06:56:21.734Z,93.08
2019-02-21T06:57:21.736Z,93.08
2019-02-21T06:59:14.641Z,92.80
2019-02-21T07:00:14.651Z,92.23
2019-02-21T07:02:08.057Z,92.71
2019-02-21T07:03:15.529Z,92.51
2019-02-21T07:05:00.964Z,92.42
2019-02-21T07:06:00.982Z,92.32
2019-02-21T07:07:53.876Z,92.04
2019-02-21T07:08:54.291Z,92.13
2019-02-21T07:10:46.772Z,92.04
2019-02-21T07:11:46.791Z,91.94
2019-02-21T07:13:40.197Z,92.42
2019-02-21T07:14:40.206Z,92.23
2019-02-21T07:16:33.112Z,92.27
2019-02-21T07:17:33.106Z,92.32
2019-02-21T07:19:27.075Z,92.27
2019-02-21T07:20:27.011Z,92.08
2019-02-21T07:22:22.336Z,91.61
2019-02-21T07:23:19.929Z,91.71
2019-02-21T07:25:14.316Z,91.89
2019-02-21T07:26:14.328Z,91.80
2019-02-21T07:28:11.629Z,91.80
2019-02-21T07:29:07.242Z,91.61
2019-02-21T07:31:00.634Z,91.61
2019-02-21T07:32:00.647Z,91.61
2019-02-21T07:33:53.568Z,92.08
2019-02-21T07:34:53.556Z,91.61
2019-02-21T07:36:46.468Z,92.27
2019-02-21T07:37:46.477Z,92.18
2019-02-21T07:39:39.377Z,92.41
2019-02-21T07:40:39.386Z,92.32
2019-02-21T07:42:32.303Z,92.03
2019-02-21T07:43:32.295Z,91.94
2019-02-21T07:45:25.198Z,91.75
2019-02-21T07:46:25.207Z,91.85
2019-02-21T07:48:18.120Z,91.47
2019-02-21T07:49:18.122Z,91.85
2019-02-21T07:51:13.416Z,90.99
2019-02-21T07:52:11.032Z,90.33
2019-02-21T07:54:05.009Z,91.18
2019-02-21T07:55:05.011Z,91.08
2019-02-21T07:56:57.920Z,91.80
2019-02-21T07:57:57.921Z,91.22
2019-02-21T07:59:50.824Z,90.56
2019-02-21T08:00:50.837Z,90.84
2019-02-21T08:02:43.748Z,90.47
2019-02-21T08:03:47.303Z,90.18
2019-02-21T08:05:36.655Z,89.70
2019-02-21T08:06:36.666Z,89.70
2019-02-21T08:08:32.273Z,89.65
2019-02-21T08:09:29.574Z,89.18
2019-02-21T08:11:22.477Z,88.89
2019-02-21T08:12:23.298Z,88.60
2019-02-21T08:14:16.268Z,88.42
2019-02-21T08:15:15.551Z,88.32
2019-02-21T08:17:08.463Z,88.13
2019-02-21T08:18:08.468Z,88.13
2019-02-21T08:20:08.535Z,87.56
2019-02-21T08:21:01.397Z,87.03
2019-02-21T08:22:54.307Z,87.32
2019-02-21T08:23:54.320Z,86.94
2019-02-21T08:25:47.205Z,86.18
2019-02-21T08:26:47.219Z,85.51
2019-02-21T08:28:40.142Z,84.98
2019-02-21T08:29:40.133Z,85.08
2019-02-21T08:31:33.037Z,84.98
2019-02-21T08:32:33.050Z,84.69
2019-02-21T08:34:25.975Z,84.83
2019-02-21T08:35:25.973Z,83.59
2019-02-21T08:37:18.887Z,82.92
2019-02-21T08:38:18.890Z,82.73
2019-02-21T08:40:11.793Z,82.07
2019-02-21T08:41:14.391Z,81.02
2019-02-21T08:43:04.717Z,81.54
2019-02-21T08:44:04.725Z,80.68
2019-02-21T08:45:57.747Z,79.63
2019-02-21T08:46:57.642Z,79.53
2019-02-21T08:48:50.552Z,79.63
2019-02-21T08:49:50.560Z,79.91
2019-02-21T08:51:43.477Z,79.15
2019-02-21T08:52:43.481Z,78.86
2019-02-21T08:54:36.393Z,79.11
2019-02-21T08:55:36.394Z,79.30
2019-02-21T08:57:29.798Z,79.59
2019-02-21T08:58:29.805Z,79.40
2019-02-21T09:00:22.710Z,79.49
2019-02-21T09:01:22.724Z,80.26
2019-02-21T09:03:18.020Z,80.16
2019-02-21T09:04:26.935Z,79.68
2019-02-21T09:06:08.549Z,79.68
2019-02-21T09:07:08.563Z,79.88
2019-02-21T09:09:01.478Z,80.73
2019-02-21T09:10:01.485Z,80.73
2019-02-21T09:11:54.385Z,80.16
2019-02-21T09:12:54.406Z,79.91
2019-02-21T09:14:47.319Z,79.63
2019-02-21T09:15:47.322Z,79.82
2019-02-21T09:17:40.234Z,79.35
2019-02-21T09:18:40.243Z,79.25
2019-02-21T09:20:33.145Z,78.86
2019-02-21T09:21:33.157Z,78.86
2019-02-21T09:23:26.074Z,79.25
2019-02-21T09:24:38.507Z,78.77
2019-02-21T09:26:21.530Z,78.67
2019-02-21T09:27:19.196Z,79.15
2019-02-21T09:29:12.111Z,78.86
2019-02-21T09:30:12.116Z,78.01
2019-02-21T09:32:06.845Z,77.82
2019-02-21T09:33:05.043Z,77.91
2019-02-21T09:34:58.773Z,78.58
2019-02-21T09:35:57.956Z,78.30
2019-02-21T09:37:50.870Z,78.58
2019-02-21T09:38:50.881Z,78.39
2019-02-21T09:40:43.791Z,78.67
2019-02-21T09:41:43.807Z,78.96
2019-02-21T09:43:36.722Z,79.82
2019-02-21T09:44:36.732Z,79.63
2019-02-21T09:46:29.639Z,79.91
2019-02-21T09:47:31.128Z,80.39
2019-02-21T09:49:22.564Z,81.15
2019-02-21T09:50:22.571Z,80.58
2019-02-21T09:52:15.473Z,80.58
2019-02-21T09:53:15.489Z,80.30
2019-02-21T09:55:08.400Z,80.87
2019-02-21T09:56:08.412Z,81.15
2019-02-21T09:58:01.391Z,81.54
2019-02-21T09:59:01.331Z,81.54
2019-02-21T10:00:54.242Z,81.54
2019-02-21T10:01:54.243Z,81.25
2019-02-21T10:03:47.156Z,81.44
2019-02-21T10:04:47.160Z,82.01
2019-02-21T10:06:40.064Z,81.35
2019-02-21T10:07:40.078Z,80.96
2019-02-21T10:09:32.994Z,80.30
2019-02-21T10:10:32.997Z,80.30
2019-02-21T10:12:25.905Z,80.58
2019-02-21T10:13:25.913Z,80.87
2019-02-21T10:15:18.825Z,80.20
2019-02-21T10:16:18.830Z,80.11
2019-02-21T10:18:11.750Z,80.20
2019-02-21T10:19:11.753Z,80.77
2019-02-21T10:21:04.664Z,80.11
2019-02-21T10:22:04.677Z,80.49
2019-02-21T10:23:57.733Z,80.30
2019-02-21T10:24:57.593Z,80.58
2019-02-21T10:26:50.496Z,80.68
2019-02-21T10:27:50.512Z,80.49
2019-02-21T10:29:43.424Z,80.72
2019-02-21T10:30:43.432Z,80.33
2019-02-21T10:32:36.339Z,79.96
2019-02-21T10:33:46.277Z,79.86
2019-02-21T10:35:29.266Z,79.48
2019-02-21T10:36:29.271Z,78.52
2019-02-21T10:38:22.187Z,79.00
2019-02-21T10:39:22.196Z,79.28
2019-02-21T10:41:15.109Z,78.75
2019-02-21T10:42:15.117Z,78.52
2019-02-21T10:44:08.035Z,78.43
2019-02-21T10:45:08.048Z,78.91
2019-02-21T10:47:00.946Z,78.91
2019-02-21T10:48:00.963Z,78.81
2019-02-21T10:49:53.885Z,78.72
2019-02-21T10:50:53.881Z,78.81
2019-02-21T10:52:46.789Z,78.43
2019-02-21T10:53:46.817Z,78.66
2019-02-21T10:55:39.710Z,78.37
2019-02-21T10:56:39.725Z,78.47
2019-02-21T10:58:32.634Z,78.28
2019-02-21T10:59:32.641Z,78.47
2019-02-21T11:01:25.561Z,77.99
2019-02-21T11:02:25.567Z,77.70
2019-02-21T11:04:18.481Z,77.61
2019-02-21T11:05:18.489Z,77.42
2019-02-21T11:07:11.536Z,77.89
2019-02-21T11:08:11.554Z,78.09
2019-02-21T11:10:04.467Z,77.42
2019-02-21T11:11:04.475Z,77.70
2019-02-21T11:12:57.379Z,76.94
2019-02-21T11:13:57.396Z,76.27
2019-02-21T11:15:50.312Z,76.56
2019-02-21T11:16:50.324Z,76.65
2019-02-21T11:18:43.225Z,76.46
2019-02-21T11:19:43.242Z,76.50
2019-02-21T11:21:36.156Z,76.79
2019-02-21T11:22:36.173Z,76.79
2019-02-21T11:24:29.073Z,76.12
2019-02-21T11:25:29.129Z,76.12
2019-02-21T11:27:21.989Z,75.93
2019-02-21T11:28:22.011Z,75.93
2019-02-21T11:30:14.926Z,74.98
2019-02-21T11:31:14.932Z,75.01
2019-02-21T11:33:07.839Z,74.63
2019-02-21T11:34:07.854Z,75.01
2019-02-21T11:36:00.775Z,74.44
2019-02-21T11:37:00.783Z,73.96
2019-02-21T11:38:53.690Z,74.44
2019-02-21T11:39:53.705Z,74.73
2019-02-21T11:41:46.635Z,74.63
2019-02-21T11:42:46.634Z,74.15
2019-02-21T11:44:39.549Z,74.73
2019-02-21T11:45:39.550Z,74.34
2019-02-21T11:47:32.457Z,73.99
2019-02-21T11:48:32.474Z,72.75
2019-02-21T11:50:25.390Z,72.75
2019-02-21T11:51:25.398Z,72.66
2019-02-21T11:53:18.312Z,72.28
2019-02-21T11:54:26.466Z,71.99
2019-02-21T11:56:11.244Z,72.91
2019-02-21T11:57:11.252Z,72.24
2019-02-21T11:59:04.170Z,73.29
2019-02-21T12:00:04.185Z,73.67
2019-02-21T12:01:57.154Z,73.00
2019-02-21T12:02:57.162Z,72.81
2019-02-21T12:04:50.077Z,73.48
2019-02-21T12:05:50.086Z,73.19
2019-02-21T12:07:42.995Z,74.02
2019-02-21T12:08:43.014Z,73.96
2019-02-21T12:10:35.927Z,73.58
2019-02-21T12:11:35.935Z,73.67
2019-02-21T12:13:28.842Z,73.92
2019-02-21T12:14:28.858Z,74.02
2019-02-21T12:16:21.769Z,74.40
2019-02-21T12:17:21.778Z,74.40
2019-02-21T12:19:14.685Z,74.30
2019-02-21T12:20:14.700Z,75.16
2019-02-21T12:22:07.623Z,75.83
2019-02-21T12:23:07.623Z,76.88
2019-02-21T12:25:00.551Z,77.36
2019-02-21T12:26:00.542Z,77.84
2019-02-21T12:27:53.451Z,78.07
2019-02-21T12:28:53.469Z,77.84
2019-02-21T12:30:46.382Z,77.26
2019-02-21T12:31:46.390Z,76.60
2019-02-21T12:33:39.806Z,75.83
2019-02-21T12:34:39.809Z,76.21
2019-02-21T12:36:32.724Z,75.26
2019-02-21T12:37:32.731Z,76.31
2019-02-21T12:39:25.638Z,75.93
2019-02-21T12:40:25.651Z,75.45
2019-02-21T12:42:18.564Z,75.74
2019-02-21T12:43:18.572Z,76.03
2019-02-21T12:45:11.489Z,75.93
2019-02-21T12:46:11.495Z,75.83
2019-02-21T12:48:04.409Z,75.39
2019-02-21T12:49:04.418Z,75.20
2019-02-21T12:50:57.342Z,75.78
2019-02-21T12:51:57.609Z,75.39
2019-02-21T12:53:50.255Z,74.82
2019-02-21T12:54:51.873Z,75.10
2019-02-21T12:56:43.189Z,74.34
2019-02-21T12:57:43.199Z,74.34
2019-02-21T12:59:36.115Z,74.44
2019-02-21T13:00:36.711Z,74.05
2019-02-21T13:02:29.042Z,74.15
2019-02-21T13:03:29.049Z,74.44
2019-02-21T13:05:21.973Z,74.38
2019-02-21T13:06:21.977Z,74.19
2019-02-21T13:08:14.906Z,73.99
2019-02-21T13:09:14.899Z,73.80
2019-02-21T13:11:07.819Z,73.61
2019-02-21T13:12:07.825Z,73.58
2019-02-21T13:14:00.736Z,74.57
2019-02-21T13:15:00.752Z,75.30
2019-02-21T13:16:53.667Z,74.53
2019-02-21T13:17:53.675Z,74.44
2019-02-21T13:19:46.598Z,74.73
2019-02-21T13:20:46.601Z,74.57
2019-02-21T13:22:40.027Z,74.48
2019-02-21T13:23:42.804Z,74.85
2019-02-21T13:25:32.935Z,74.28
2019-02-21T13:26:32.946Z,74.19
2019-02-21T13:28:25.859Z,74.38
2019-02-21T13:29:25.869Z,74.57
2019-02-21T13:31:18.785Z,74.48
2019-02-21T13:32:18.868Z,73.14
2019-02-21T13:34:11.700Z,74.57
2019-02-21T13:35:11.716Z,74.09
2019-02-21T13:37:04.635Z,74.19
2019-02-21T13:38:04.643Z,74.28
2019-02-21T13:40:00.448Z,74.51
2019-02-21T13:40:57.570Z,74.09
2019-02-21T13:42:50.482Z,74.13
2019-02-21T13:43:50.494Z,73.94
2019-02-21T13:45:43.410Z,74.04
2019-02-21T13:46:43.417Z,73.90
2019-02-21T13:48:36.325Z,73.99
2019-02-21T13:49:36.354Z,74.61
2019-02-21T13:51:29.262Z,74.13
2019-02-21T13:52:29.274Z,74.32
2019-02-21T13:54:22.197Z,74.13
2019-02-21T13:55:22.210Z,74.22
2019-02-21T13:57:15.640Z,74.51
2019-02-21T13:58:15.648Z,74.32
2019-02-21T14:00:08.553Z,73.46
2019-02-21T14:01:08.575Z,73.75
2019-02-21T14:03:01.489Z,73.46
2019-02-21T14:04:01.500Z,74.04
2019-02-21T14:06:03.217Z,74.04
2019-02-21T14:06:54.429Z,74.41
2019-02-21T14:08:47.340Z,74.13
2019-02-21T14:09:47.353Z,73.65
2019-02-21T14:11:40.265Z,74.04
2019-02-21T14:12:40.274Z,74.41
2019-02-21T14:14:33.187Z,75.18
2019-02-21T14:15:33.199Z,75.18
2019-02-21T14:17:26.113Z,76.14
2019-02-21T14:18:26.123Z,77.28
2019-02-21T14:20:19.034Z,77.38
2019-02-21T14:21:19.075Z,77.28
2019-02-21T14:23:12.470Z,76.81
2019-02-21T14:24:12.478Z,76.71
2019-02-21T14:26:05.893Z,76.04
2019-02-21T14:27:08.638Z,75.27
2019-02-21T14:28:58.854Z,75.47
2019-02-21T14:29:58.822Z,74.41
2019-02-21T14:31:51.736Z,73.46
2019-02-21T14:32:51.748Z,72.69
2019-02-21T14:34:44.657Z,72.88
2019-02-21T14:35:44.672Z,73.08
2019-02-21T14:37:37.587Z,72.69
2019-02-21T14:38:37.962Z,72.12
2019-02-21T14:40:30.517Z,71.22
2019-02-21T14:41:30.523Z,70.46
2019-02-21T14:43:23.443Z,70.56
2019-02-21T14:44:23.465Z,70.75
2019-02-21T14:46:16.571Z,70.84
2019-02-21T14:47:16.572Z,71.38
2019-02-21T14:49:09.476Z,71.38
2019-02-21T14:50:09.494Z,71.67
2019-02-21T14:52:02.411Z,72.62
2019-02-21T14:53:02.417Z,72.33
2019-02-21T14:54:55.326Z,73.10
2019-02-21T14:55:55.347Z,72.81
2019-02-21T14:57:48.253Z,72.72
2019-02-21T14:58:48.300Z,73.10
2019-02-21T15:00:41.173Z,72.72
2019-02-21T15:01:41.203Z,73.00
2019-02-21T15:03:34.100Z,72.53
2019-02-21T15:04:34.105Z,73.10
2019-02-21T15:06:27.611Z,72.81
2019-02-21T15:07:27.031Z,72.72
2019-02-21T15:09:19.939Z,72.53
2019-02-21T15:10:19.960Z,73.19
2019-02-21T15:12:13.859Z,73.39
2019-02-21T15:13:13.868Z,73.39
2019-02-21T15:15:06.776Z,73.39
2019-02-21T15:16:06.800Z,72.81
2019-02-21T15:18:07.697Z,72.72
2019-02-21T15:18:59.716Z,71.86
2019-02-21T15:20:52.627Z,71.95
2019-02-21T15:21:52.641Z,71.57
2019-02-21T15:23:45.556Z,72.33
2019-02-21T15:24:45.568Z,73.10
2019-02-21T15:26:38.478Z,71.86
2019-02-21T15:27:38.490Z,72.53
2019-02-21T15:29:31.537Z,73.00
2019-02-21T15:30:31.560Z,73.00
2019-02-21T15:32:24.472Z,73.10
2019-02-21T15:33:24.476Z,73.19
2019-02-21T15:35:19.423Z,72.81
2019-02-21T15:36:17.397Z,72.14
2019-02-21T15:38:19.616Z,71.57
2019-02-21T15:39:10.323Z,71.86
2019-02-21T15:41:03.230Z,72.05
2019-02-21T15:42:03.248Z,71.67
2019-02-21T15:43:56.162Z,72.33
2019-02-21T15:44:56.170Z,72.14
2019-02-21T15:46:49.084Z,71.76
2019-02-21T15:47:49.101Z,72.05
2019-02-21T15:49:41.999Z,72.14
2019-02-21T15:50:42.015Z,71.86
2019-02-21T15:52:34.925Z,71.47
2019-02-21T15:53:34.936Z,71.47
2019-02-21T15:55:27.847Z,71.47
2019-02-21T15:56:27.859Z,70.42
2019-02-21T15:58:20.795Z,70.67
2019-02-21T15:59:20.808Z,70.87
2019-02-21T16:01:14.371Z,71.25
2019-02-21T16:02:13.725Z,71.57
2019-02-21T16:04:06.636Z,71.15
2019-02-21T16:05:06.648Z,71.44
2019-02-21T16:06:59.562Z,71.53
2019-02-21T16:07:59.569Z,71.47
2019-02-21T16:09:52.473Z,71.92
2019-02-21T16:10:52.488Z,71.92
2019-02-21T16:12:46.020Z,71.82
2019-02-21T16:13:45.647Z,71.82
2019-02-21T16:15:38.325Z,71.82
2019-02-21T16:16:38.338Z,72.68
2019-02-21T16:18:31.258Z,72.14
2019-02-21T16:19:31.272Z,71.67
2019-02-21T16:21:24.171Z,72.05
2019-02-21T16:22:24.187Z,71.92
2019-02-21T16:24:17.103Z,72.30
2019-02-21T16:25:17.107Z,72.58
2019-02-21T16:27:10.019Z,73.16
2019-02-21T16:28:10.030Z,73.83
2019-02-21T16:30:02.945Z,74.21
2019-02-21T16:31:02.947Z,74.21
2019-02-21T16:32:55.859Z,74.40
2019-02-21T16:33:55.865Z,74.98
2019-02-21T16:35:48.787Z,74.88
2019-02-21T16:36:48.790Z,74.78
2019-02-21T16:38:41.702Z,74.69
2019-02-21T16:39:41.711Z,74.37
2019-02-21T16:41:36.568Z,74.69
2019-02-21T16:42:34.632Z,74.78
2019-02-21T16:44:27.544Z,74.65
2019-02-21T16:45:39.809Z,75.22
2019-02-21T16:47:20.468Z,75.42
2019-02-21T16:48:20.477Z,75.89
2019-02-21T16:50:13.382Z,76.08
2019-02-21T16:51:13.392Z,76.18
2019-02-21T16:53:06.306Z,76.08
2019-02-21T16:54:06.313Z,76.18
2019-02-21T16:55:59.215Z,75.79
2019-02-21T16:56:59.233Z,75.98
2019-02-21T16:58:52.144Z,75.89
2019-02-21T16:59:52.152Z,75.70
2019-02-21T17:01:45.058Z,76.21
2019-02-21T17:02:45.077Z,76.27
2019-02-21T17:04:37.983Z,75.70
2019-02-21T17:05:37.997Z,76.08
2019-02-21T17:07:30.907Z,76.18
2019-02-21T17:08:30.921Z,75.70
2019-02-21T17:10:23.819Z,76.65
2019-02-21T17:11:23.836Z,76.46
2019-02-21T17:13:16.748Z,76.46
2019-02-21T17:14:16.752Z,76.37
2019-02-21T17:16:09.660Z,76.84
2019-02-21T17:17:09.677Z,77.80
2019-02-21T17:19:02.586Z,78.66
2019-02-21T17:20:02.596Z,79.43
2019-02-21T17:21:55.513Z,80.19
2019-02-21T17:22:55.511Z,81.43
2019-02-21T17:24:48.428Z,82.15
2019-02-21T17:25:48.460Z,83.01
2019-02-21T17:27:41.348Z,83.20
2019-02-21T17:28:41.351Z,83.39
2019-02-21T17:30:34.258Z,83.58
2019-02-21T17:31:34.273Z,83.29
2019-02-21T17:33:27.186Z,83.39
2019-02-21T17:34:27.197Z,83.87
2019-02-21T17:36:20.098Z,83.87
2019-02-21T17:37:24.850Z,83.62
2019-02-21T17:39:13.024Z,83.05
2019-02-21T17:40:13.041Z,83.05
2019-02-21T17:42:05.941Z,82.76
2019-02-21T17:43:05.956Z,83.01
2019-02-21T17:44:58.868Z,83.14
2019-02-21T17:45:58.972Z,83.24
2019-02-21T17:47:51.786Z,83.53
2019-02-21T17:48:51.785Z,83.05
2019-02-21T17:50:44.694Z,83.24
2019-02-21T17:51:44.705Z,83.53
2019-02-21T17:53:37.617Z,83.91
2019-02-21T17:54:37.624Z,83.72
2019-02-21T17:56:31.022Z,83.43
2019-02-21T17:57:31.061Z,83.29
2019-02-21T17:59:23.954Z,83.53
2019-02-21T18:00:23.963Z,83.53
2019-02-21T18:02:16.867Z,83.14
2019-02-21T18:03:16.878Z,83.05
2019-02-21T18:05:09.799Z,82.95
2019-02-21T18:06:09.896Z,82.57
2019-02-21T18:08:02.757Z,83.05
2019-02-21T18:09:02.825Z,82.57
2019-02-21T18:10:55.745Z,83.05
2019-02-21T18:11:55.804Z,82.38
2019-02-21T18:13:48.773Z,83.14
2019-02-21T18:14:48.722Z,83.05
2019-02-21T18:16:41.631Z,82.76
2019-02-21T18:17:41.640Z,82.95
2019-02-21T18:19:34.576Z,82.57
2019-02-21T18:20:34.568Z,83.05
2019-02-21T18:22:27.511Z,82.91
2019-02-21T18:23:27.489Z,83.05
2019-02-21T18:25:20.478Z,83.11
2019-02-21T18:26:20.412Z,83.34
2019-02-21T18:28:13.435Z,83.14
2019-02-21T18:29:13.346Z,83.14
2019-02-21T18:31:06.259Z,83.05
2019-02-21T18:32:06.779Z,82.86
2019-02-21T18:33:59.245Z,82.57